Aeroporto :
LOGIN :

Iscrizione | Disclaimer

   EN    FR    IT 

 










Sommario :    VFR   VFR Marginale   IFR   IFR Intensivo   IFR Molto Intensivo
Visibilità : 
Base nubi : 
>= 8 km
>= 3000ft
5 / 8 km
1000 / 3000 ft
1500m / 5 km
500 / 1000 ft
800 / 1500m
200 / 500 ft
< 800m
< 200 ft
Simboli :   Temporali  Nebbia  Neve Forte  Precipitazioni Forti  Vento > 20 kt
SIGMETs :   Varie  Temporali  Ghiacco  Turbolenza  Onda orograficha  Ceneri Vulcaniche







- Altitudine del aeroporto : 177 ft
- Codice IATA : BRI


LIBD - Palese Macchie Bari

ULTIMO METAR :
  • 201620Z 09008KT CAVOK 29/20 Q1016

METARs OBSOLETI :
  • 201550Z 08008KT CAVOK 29/19 Q1016
  • 201520Z 08009KT CAVOK 30/18 Q1016
  • 201450Z 08009KT 060V120 CAVOK 30/18 Q1016
  • 201420Z 09009KT 050V120 CAVOK 30/18 Q1017
  • 201350Z 09009KT 070V130 CAVOK 30/21 Q1017

TAF TAF LIBD
Valido dal 20 a 12 ore il 21 a 12 ore UTC


201100Z 2012/2112 05012KT CAVOK
BECMG 2018/2020 VRB05KT
BECMG 2109/2111 02012KT
Nessun NOTAM noto per questo aeroporto.



MetMap, La meteo Aeronautica in un colpo d'occhio ! - Copyright ORBIFLY Dicembre 2007 - Disclaimer

ORBIFLY MET'MAP TEAM :

Programmazione e sviluppo : Alexandra Zaïnal
Concezione e sviluppo : Baudouin d'Aumeries
Co-Programmazione e sviluppo : Marc-Olivier Méhu
Supporto tecnico e logistico : Manuel Goepfert
Aiuto per la traduzione : Arnaldo La Scala

Contatto : metmap@orbifly.com




FONTI E CREDITI :

   NOAA